sensor_id;sensor_type;location;lat;lon;timestamp;temperature;humidity
13711;DHT22;6927;51.256;9.410;2023-07-08T00:13:26;16.20;1.00
13711;DHT22;6927;51.256;9.410;2023-07-08T00:15:52;16.10;44.50
13711;DHT22;6927;51.256;9.410;2023-07-08T00:18:17;16.10;1.00
13711;DHT22;6927;51.256;9.410;2023-07-08T00:20:46;16.10;1.00
13711;DHT22;6927;51.256;9.410;2023-07-08T00:23:13;16.00;3.90
13711;DHT22;6927;51.256;9.410;2023-07-08T00:25:39;15.90;99.90
13711;DHT22;6927;51.256;9.410;2023-07-08T00:28:18;15.90;99.90
13711;DHT22;6927;51.256;9.410;2023-07-08T00:30:45;15.80;1.00
13711;DHT22;6927;51.256;9.410;2023-07-08T00:33:10;15.80;1.00
13711;DHT22;6927;51.256;9.410;2023-07-08T00:35:41;15.80;1.00
13711;DHT22;6927;51.256;9.410;2023-07-08T00:41:04;15.70;99.90
13711;DHT22;6927;51.256;9.410;2023-07-08T00:44:01;15.70;1.00
13711;DHT22;6927;51.256;9.410;2023-07-08T00:48:55;15.60;99.90
13711;DHT22;6927;51.256;9.410;2023-07-08T00:51:22;15.60;1.00
13711;DHT22;6927;51.256;9.410;2023-07-08T00:53:48;15.70;89.40
13711;DHT22;6927;51.256;9.410;2023-07-08T00:56:23;15.70;1.00
13711;DHT22;6927;51.256;9.410;2023-07-08T00:59:04;15.60;99.90
13711;DHT22;6927;51.256;9.410;2023-07-08T01:01:34;15.60;1.00
13711;DHT22;6927;51.256;9.410;2023-07-08T01:04:04;15.60;99.90
13711;DHT22;6927;51.256;9.410;2023-07-08T01:06:32;15.60;87.10
13711;DHT22;6927;51.256;9.410;2023-07-08T01:09:02;15.60;99.90
13711;DHT22;6927;51.256;9.410;2023-07-08T01:11:30;15.60;99.90
13711;DHT22;6927;51.256;9.410;2023-07-08T01:13:59;15.60;99.90
13711;DHT22;6927;51.256;9.410;2023-07-08T01:16:25;15.50;40.80
13711;DHT22;6927;51.256;9.410;2023-07-08T01:18:51;15.50;99.90
13711;DHT22;6927;51.256;9.410;2023-07-08T01:21:57;15.40;99.90
13711;DHT22;6927;51.256;9.410;2023-07-08T01:24:27;15.40;1.00
13711;DHT22;6927;51.256;9.410;2023-07-08T01:26:56;15.30;1.00
13711;DHT22;6927;51.256;9.410;2023-07-08T01:29:22;15.30;99.90
13711;DHT22;6927;51.256;9.410;2023-07-08T01:31:47;15.30;99.90
13711;DHT22;6927;51.256;9.410;2023-07-08T01:34:14;15.30;1.00
13711;DHT22;6927;51.256;9.410;2023-07-08T01:36:44;15.30;1.00
13711;DHT22;6927;51.256;9.410;2023-07-08T01:39:14;15.20;1.00
13711;DHT22;6927;51.256;9.410;2023-07-08T01:41:43;15.20;91.60
13711;DHT22;6927;51.256;9.410;2023-07-08T01:44:22;15.20;1.00
13711;DHT22;6927;51.256;9.410;2023-07-08T01:46:49;15.20;1.00
13711;DHT22;6927;51.256;9.410;2023-07-08T01:49:16;15.20;99.90
13711;DHT22;6927;51.256;9.410;2023-07-08T01:51:42;15.10;1.00
13711;DHT22;6927;51.256;9.410;2023-07-08T01:54:07;15.10;1.00
13711;DHT22;6927;51.256;9.410;2023-07-08T01:56:33;15.10;99.90
13711;DHT22;6927;51.256;9.410;2023-07-08T01:58:58;15.10;99.90
13711;DHT22;6927;51.256;9.410;2023-07-08T02:01:24;15.10;1.00
13711;DHT22;6927;51.256;9.410;2023-07-08T02:03:49;15.10;1.00
13711;DHT22;6927;51.256;9.410;2023-07-08T02:06:15;15.00;99.90
13711;DHT22;6927;51.256;9.410;2023-07-08T02:08:40;15.00;1.00
13711;DHT22;6927;51.256;9.410;2023-07-08T02:11:06;14.90;1.00
13711;DHT22;6927;51.256;9.410;2023-07-08T02:13:31;14.90;99.90
13711;DHT22;6927;51.256;9.410;2023-07-08T02:15:57;14.90;1.00
13711;DHT22;6927;51.256;9.410;2023-07-08T02:18:23;14.90;27.20
13711;DHT22;6927;51.256;9.410;2023-07-08T02:20:50;14.90;99.90
13711;DHT22;6927;51.256;9.410;2023-07-08T02:23:19;14.90;99.90
13711;DHT22;6927;51.256;9.410;2023-07-08T02:25:55;14.80;99.90
13711;DHT22;6927;51.256;9.410;2023-07-08T02:28:21;14.80;99.90
13711;DHT22;6927;51.256;9.410;2023-07-08T02:30:47;14.70;1.00
13711;DHT22;6927;51.256;9.410;2023-07-08T02:33:13;14.70;20.30
13711;DHT22;6927;51.256;9.410;2023-07-08T02:35:43;14.80;1.00
13711;DHT22;6927;51.256;9.410;2023-07-08T02:38:08;14.70;1.00
13711;DHT22;6927;51.256;9.410;2023-07-08T02:40:34;14.70;99.90
13711;DHT22;6927;51.256;9.410;2023-07-08T02:42:59;14.70;1.00
13711;DHT22;6927;51.256;9.410;2023-07-08T02:45:25;14.70;99.90
13711;DHT22;6927;51.256;9.410;2023-07-08T02:47:50;14.60;1.00
13711;DHT22;6927;51.256;9.410;2023-07-08T02:50:16;14.50;1.00
13711;DHT22;6927;51.256;9.410;2023-07-08T02:52:44;14.50;99.90
13711;DHT22;6927;51.256;9.410;2023-07-08T02:55:09;14.50;99.90
13711;DHT22;6927;51.256;9.410;2023-07-08T02:57:35;14.50;99.90
13711;DHT22;6927;51.256;9.410;2023-07-08T03:00:01;14.50;99.90
13711;DHT22;6927;51.256;9.410;2023-07-08T03:02:28;14.40;99.90
13711;DHT22;6927;51.256;9.410;2023-07-08T03:04:53;14.40;99.90
13711;DHT22;6927;51.256;9.410;2023-07-08T03:07:19;14.40;99.90
13711;DHT22;6927;51.256;9.410;2023-07-08T03:09:45;14.40;99.90
13711;DHT22;6927;51.256;9.410;2023-07-08T03:12:11;14.40;99.90
13711;DHT22;6927;51.256;9.410;2023-07-08T03:14:37;14.40;99.90
13711;DHT22;6927;51.256;9.410;2023-07-08T03:17:04;14.40;99.90
13711;DHT22;6927;51.256;9.410;2023-07-08T03:19:30;14.40;99.90
13711;DHT22;6927;51.256;9.410;2023-07-08T03:21:55;14.40;99.90
13711;DHT22;6927;51.256;9.410;2023-07-08T03:24:21;14.40;99.90
13711;DHT22;6927;51.256;9.410;2023-07-08T03:26:47;14.30;99.90
13711;DHT22;6927;51.256;9.410;2023-07-08T03:29:17;14.30;99.90
13711;DHT22;6927;51.256;9.410;2023-07-08T03:31:44;14.30;99.90
13711;DHT22;6927;51.256;9.410;2023-07-08T03:34:15;14.30;99.90
13711;DHT22;6927;51.256;9.410;2023-07-08T03:36:46;14.30;99.90
13711;DHT22;6927;51.256;9.410;2023-07-08T03:39:18;14.30;99.90
13711;DHT22;6927;51.256;9.410;2023-07-08T03:41:44;14.30;99.90
13711;DHT22;6927;51.256;9.410;2023-07-08T03:44:10;14.30;99.90
13711;DHT22;6927;51.256;9.410;2023-07-08T03:46:36;14.30;99.90
13711;DHT22;6927;51.256;9.410;2023-07-08T03:49:02;14.30;99.90
13711;DHT22;6927;51.256;9.410;2023-07-08T03:51:31;14.40;99.90
13711;DHT22;6927;51.256;9.410;2023-07-08T03:53:57;14.40;99.90
13711;DHT22;6927;51.256;9.410;2023-07-08T03:56:23;14.50;99.90
13711;DHT22;6927;51.256;9.410;2023-07-08T03:58:49;14.50;99.90
13711;DHT22;6927;51.256;9.410;2023-07-08T04:01:20;14.60;99.90
13711;DHT22;6927;51.256;9.410;2023-07-08T04:03:46;14.60;99.90
13711;DHT22;6927;51.256;9.410;2023-07-08T04:06:13;14.60;99.90
13711;DHT22;6927;51.256;9.410;2023-07-08T04:08:39;14.70;99.90
13711;DHT22;6927;51.256;9.410;2023-07-08T04:11:05;14.70;99.90
13711;DHT22;6927;51.256;9.410;2023-07-08T04:13:31;14.80;99.90
13711;DHT22;6927;51.256;9.410;2023-07-08T04:16:01;14.80;99.90
13711;DHT22;6927;51.256;9.410;2023-07-08T04:18:27;14.90;99.90
13711;DHT22;6927;51.256;9.410;2023-07-08T04:20:53;15.00;99.90
13711;DHT22;6927;51.256;9.410;2023-07-08T04:23:19;15.10;99.90
13711;DHT22;6927;51.256;9.410;2023-07-08T04:25:46;15.20;99.90
13711;DHT22;6927;51.256;9.410;2023-07-08T04:28:12;15.30;99.90
13711;DHT22;6927;51.256;9.410;2023-07-08T04:30:37;15.40;99.90
13711;DHT22;6927;51.256;9.410;2023-07-08T04:33:11;15.50;99.90
13711;DHT22;6927;51.256;9.410;2023-07-08T04:35:37;15.60;99.90
13711;DHT22;6927;51.256;9.410;2023-07-08T04:38:06;15.70;99.90
13711;DHT22;6927;51.256;9.410;2023-07-08T04:40:36;15.80;99.90
13711;DHT22;6927;51.256;9.410;2023-07-08T04:43:06;16.00;99.90
13711;DHT22;6927;51.256;9.410;2023-07-08T04:45:31;16.10;99.90
13711;DHT22;6927;51.256;9.410;2023-07-08T04:47:57;16.20;99.90
13711;DHT22;6927;51.256;9.410;2023-07-08T04:50:23;16.30;99.90
13711;DHT22;6927;51.256;9.410;2023-07-08T04:52:48;16.50;99.90
13711;DHT22;6927;51.256;9.410;2023-07-08T04:55:15;16.60;99.90
13711;DHT22;6927;51.256;9.410;2023-07-08T04:57:41;16.70;99.90
13711;DHT22;6927;51.256;9.410;2023-07-08T05:00:09;16.90;99.90
13711;DHT22;6927;51.256;9.410;2023-07-08T05:02:38;17.00;99.90
13711;DHT22;6927;51.256;9.410;2023-07-08T05:05:03;17.20;99.90
13711;DHT22;6927;51.256;9.410;2023-07-08T05:07:29;17.30;99.90
13711;DHT22;6927;51.256;9.410;2023-07-08T05:09:55;17.50;99.90
13711;DHT22;6927;51.256;9.410;2023-07-08T05:12:21;17.70;99.90
13711;DHT22;6927;51.256;9.410;2023-07-08T05:14:47;17.80;99.90
13711;DHT22;6927;51.256;9.410;2023-07-08T05:17:12;18.00;99.90
13711;DHT22;6927;51.256;9.410;2023-07-08T05:19:38;18.20;99.90
13711;DHT22;6927;51.256;9.410;2023-07-08T05:22:03;18.40;99.90
13711;DHT22;6927;51.256;9.410;2023-07-08T05:24:29;18.60;99.90
13711;DHT22;6927;51.256;9.410;2023-07-08T05:26:55;18.80;99.90
13711;DHT22;6927;51.256;9.410;2023-07-08T05:29:20;19.00;99.90
13711;DHT22;6927;51.256;9.410;2023-07-08T05:31:46;19.20;99.90
13711;DHT22;6927;51.256;9.410;2023-07-08T05:34:11;19.30;99.90
13711;DHT22;6927;51.256;9.410;2023-07-08T05:36:37;19.50;99.90
13711;DHT22;6927;51.256;9.410;2023-07-08T05:39:02;19.50;99.90
13711;DHT22;6927;51.256;9.410;2023-07-08T05:41:28;19.40;99.90
13711;DHT22;6927;51.256;9.410;2023-07-08T05:43:53;19.50;99.90
13711;DHT22;6927;51.256;9.410;2023-07-08T05:46:19;19.50;99.90
13711;DHT22;6927;51.256;9.410;2023-07-08T05:48:44;19.50;99.90
13711;DHT22;6927;51.256;9.410;2023-07-08T05:51:10;19.60;99.90
13711;DHT22;6927;51.256;9.410;2023-07-08T05:53:36;19.70;99.90
13711;DHT22;6927;51.256;9.410;2023-07-08T05:56:02;19.90;99.90
13711;DHT22;6927;51.256;9.410;2023-07-08T05:58:28;20.00;99.90
13711;DHT22;6927;51.256;9.410;2023-07-08T06:00:58;20.10;99.90
13711;DHT22;6927;51.256;9.410;2023-07-08T06:03:23;20.30;99.90
13711;DHT22;6927;51.256;9.410;2023-07-08T06:05:49;20.50;99.90
13711;DHT22;6927;51.256;9.410;2023-07-08T06:08:14;20.70;99.90
13711;DHT22;6927;51.256;9.410;2023-07-08T06:10:44;20.80;99.90
13711;DHT22;6927;51.256;9.410;2023-07-08T06:13:10;20.90;99.90
13711;DHT22;6927;51.256;9.410;2023-07-08T06:15:36;21.00;99.90
13711;DHT22;6927;51.256;9.410;2023-07-08T06:18:01;21.10;99.90
13711;DHT22;6927;51.256;9.410;2023-07-08T06:20:28;21.30;99.90
13711;DHT22;6927;51.256;9.410;2023-07-08T06:22:54;21.50;99.90
13711;DHT22;6927;51.256;9.410;2023-07-08T06:25:20;21.70;99.90
13711;DHT22;6927;51.256;9.410;2023-07-08T06:27:45;21.80;99.90
13711;DHT22;6927;51.256;9.410;2023-07-08T06:30:11;21.90;99.90
13711;DHT22;6927;51.256;9.410;2023-07-08T06:32:37;22.20;99.90
13711;DHT22;6927;51.256;9.410;2023-07-08T06:35:03;22.50;99.90
13711;DHT22;6927;51.256;9.410;2023-07-08T06:37:28;22.70;99.90
13711;DHT22;6927;51.256;9.410;2023-07-08T06:39:54;22.90;99.90
13711;DHT22;6927;51.256;9.410;2023-07-08T06:42:20;23.10;99.90
13711;DHT22;6927;51.256;9.410;2023-07-08T06:44:45;23.30;99.90
13711;DHT22;6927;51.256;9.410;2023-07-08T06:47:20;23.30;99.90
13711;DHT22;6927;51.256;9.410;2023-07-08T06:49:46;23.50;99.90
13711;DHT22;6927;51.256;9.410;2023-07-08T06:52:12;24.10;99.90
13711;DHT22;6927;51.256;9.410;2023-07-08T06:54:37;24.90;99.90
13711;DHT22;6927;51.256;9.410;2023-07-08T06:57:03;25.30;99.90
13711;DHT22;6927;51.256;9.410;2023-07-08T06:59:28;25.90;99.90
13711;DHT22;6927;51.256;9.410;2023-07-08T07:01:54;26.30;99.90
13711;DHT22;6927;51.256;9.410;2023-07-08T07:04:20;26.70;99.90
13711;DHT22;6927;51.256;9.410;2023-07-08T07:06:45;27.30;99.90
13711;DHT22;6927;51.256;9.410;2023-07-08T07:09:11;27.90;99.90
13711;DHT22;6927;51.256;9.410;2023-07-08T07:11:36;28.30;99.90
13711;DHT22;6927;51.256;9.410;2023-07-08T07:14:02;28.60;99.90
13711;DHT22;6927;51.256;9.410;2023-07-08T07:16:28;28.90;99.90
13711;DHT22;6927;51.256;9.410;2023-07-08T07:18:53;29.10;99.90
13711;DHT22;6927;51.256;9.410;2023-07-08T07:21:19;29.40;99.90
13711;DHT22;6927;51.256;9.410;2023-07-08T07:23:44;29.40;99.90
13711;DHT22;6927;51.256;9.410;2023-07-08T07:26:11;29.70;99.90
13711;DHT22;6927;51.256;9.410;2023-07-08T07:28:36;29.80;99.90
13711;DHT22;6927;51.256;9.410;2023-07-08T07:31:03;29.80;99.90
13711;DHT22;6927;51.256;9.410;2023-07-08T07:33:31;29.80;99.90
13711;DHT22;6927;51.256;9.410;2023-07-08T07:35:57;29.30;99.90
13711;DHT22;6927;51.256;9.410;2023-07-08T07:38:22;28.60;99.90
13711;DHT22;6927;51.256;9.410;2023-07-08T07:40:53;27.90;99.90
13711;DHT22;6927;51.256;9.410;2023-07-08T07:43:19;27.60;99.90
13711;DHT22;6927;51.256;9.410;2023-07-08T07:45:45;27.60;99.90
13711;DHT22;6927;51.256;9.410;2023-07-08T07:48:14;28.00;99.90
13711;DHT22;6927;51.256;9.410;2023-07-08T07:50:40;28.40;99.90
13711;DHT22;6927;51.256;9.410;2023-07-08T07:53:06;29.00;99.90
13711;DHT22;6927;51.256;9.410;2023-07-08T07:55:31;29.70;99.90
13711;DHT22;6927;51.256;9.410;2023-07-08T07:57:57;30.50;99.90
13711;DHT22;6927;51.256;9.410;2023-07-08T08:00:22;31.00;99.90
13711;DHT22;6927;51.256;9.410;2023-07-08T08:02:48;31.20;99.90
13711;DHT22;6927;51.256;9.410;2023-07-08T08:05:13;31.40;99.90
13711;DHT22;6927;51.256;9.410;2023-07-08T08:07:39;31.50;99.90
13711;DHT22;6927;51.256;9.410;2023-07-08T08:10:06;32.40;99.90
13711;DHT22;6927;51.256;9.410;2023-07-08T08:12:31;32.60;99.90
13711;DHT22;6927;51.256;9.410;2023-07-08T08:14:57;33.00;99.90
13711;DHT22;6927;51.256;9.410;2023-07-08T08:17:22;33.30;99.90
13711;DHT22;6927;51.256;9.410;2023-07-08T08:19:48;33.30;99.90
13711;DHT22;6927;51.256;9.410;2023-07-08T08:22:13;33.30;99.90
13711;DHT22;6927;51.256;9.410;2023-07-08T08:24:40;33.60;99.90
13711;DHT22;6927;51.256;9.410;2023-07-08T08:27:06;34.60;99.90
13711;DHT22;6927;51.256;9.410;2023-07-08T08:29:31;35.30;99.90
13711;DHT22;6927;51.256;9.410;2023-07-08T08:31:57;35.80;99.90
13711;DHT22;6927;51.256;9.410;2023-07-08T08:34:22;35.40;99.90
13711;DHT22;6927;51.256;9.410;2023-07-08T08:36:48;34.80;99.90
13711;DHT22;6927;51.256;9.410;2023-07-08T08:39:13;34.30;99.90
13711;DHT22;6927;51.256;9.410;2023-07-08T08:41:41;33.90;99.90
13711;DHT22;6927;51.256;9.410;2023-07-08T08:44:13;33.60;99.90
13711;DHT22;6927;51.256;9.410;2023-07-08T08:46:54;33.90;99.90
13711;DHT22;6927;51.256;9.410;2023-07-08T08:51:46;34.00;99.90
13711;DHT22;6927;51.256;9.410;2023-07-08T08:54:12;34.30;99.90
13711;DHT22;6927;51.256;9.410;2023-07-08T08:57:04;34.40;99.90
13711;DHT22;6927;51.256;9.410;2023-07-08T08:59:55;35.10;99.90
13711;DHT22;6927;51.256;9.410;2023-07-08T09:04:52;35.40;99.90
13711;DHT22;6927;51.256;9.410;2023-07-08T09:07:19;35.00;99.90
13711;DHT22;6927;51.256;9.410;2023-07-08T09:10:05;34.90;99.90
13711;DHT22;6927;51.256;9.410;2023-07-08T09:12:34;35.20;99.90
13711;DHT22;6927;51.256;9.410;2023-07-08T09:15:14;35.50;1.00
13711;DHT22;6927;51.256;9.410;2023-07-08T09:17:40;35.60;1.00
13711;DHT22;6927;51.256;9.410;2023-07-08T09:26:01;34.70;1.00
13711;DHT22;6927;51.256;9.410;2023-07-08T09:28:38;34.70;1.00
13711;DHT22;6927;51.256;9.410;2023-07-08T09:31:07;34.60;1.00
13711;DHT22;6927;51.256;9.410;2023-07-08T09:33:32;34.50;1.00
13711;DHT22;6927;51.256;9.410;2023-07-08T09:35:59;34.50;1.00
13711;DHT22;6927;51.256;9.410;2023-07-08T09:38:26;34.60;1.00
13711;DHT22;6927;51.256;9.410;2023-07-08T09:40:53;34.90;1.00
13711;DHT22;6927;51.256;9.410;2023-07-08T09:45:50;35.40;1.00
13711;DHT22;6927;51.256;9.410;2023-07-08T09:48:23;35.60;1.00
13711;DHT22;6927;51.256;9.410;2023-07-08T09:50:51;35.50;1.00
13711;DHT22;6927;51.256;9.410;2023-07-08T09:53:17;35.30;1.00
13711;DHT22;6927;51.256;9.410;2023-07-08T09:55:44;36.00;1.00
13711;DHT22;6927;51.256;9.410;2023-07-08T09:58:18;36.50;1.00
13711;DHT22;6927;51.256;9.410;2023-07-08T10:00:51;36.60;1.00
13711;DHT22;6927;51.256;9.410;2023-07-08T10:03:24;37.20;1.00
13711;DHT22;6927;51.256;9.410;2023-07-08T10:05:52;37.10;1.00
13711;DHT22;6927;51.256;9.410;2023-07-08T10:08:23;37.00;1.00
13711;DHT22;6927;51.256;9.410;2023-07-08T10:11:29;37.70;1.00
13711;DHT22;6927;51.256;9.410;2023-07-08T10:14:04;38.10;1.00
13711;DHT22;6927;51.256;9.410;2023-07-08T10:16:32;37.40;1.00
13711;DHT22;6927;51.256;9.410;2023-07-08T10:18:59;36.80;1.00
13711;DHT22;6927;51.256;9.410;2023-07-08T10:21:31;37.10;1.00
13711;DHT22;6927;51.256;9.410;2023-07-08T10:35:18;36.60;1.00
13711;DHT22;6927;51.256;9.410;2023-07-08T10:37:50;36.60;1.00
13711;DHT22;6927;51.256;9.410;2023-07-08T10:57:06;37.30;1.00
13711;DHT22;6927;51.256;9.410;2023-07-08T11:02:56;37.80;1.00
13711;DHT22;6927;51.256;9.410;2023-07-08T11:05:57;37.40;1.00
13711;DHT22;6927;51.256;9.410;2023-07-08T11:08:35;37.90;1.00
13711;DHT22;6927;51.256;9.410;2023-07-08T11:14:15;36.90;1.00
13711;DHT22;6927;51.256;9.410;2023-07-08T11:16:55;37.00;1.00
13711;DHT22;6927;51.256;9.410;2023-07-08T11:19:36;37.50;1.00
13711;DHT22;6927;51.256;9.410;2023-07-08T11:22:10;37.60;1.00
13711;DHT22;6927;51.256;9.410;2023-07-08T11:24:47;37.40;1.00
13711;DHT22;6927;51.256;9.410;2023-07-08T11:27:24;37.20;1.00
13711;DHT22;6927;51.256;9.410;2023-07-08T11:32:23;36.20;1.00
13711;DHT22;6927;51.256;9.410;2023-07-08T11:34:55;35.80;1.00
13711;DHT22;6927;51.256;9.410;2023-07-08T11:37:25;35.00;1.00
13711;DHT22;6927;51.256;9.410;2023-07-08T11:42:42;34.20;1.00
13711;DHT22;6927;51.256;9.410;2023-07-08T11:47:59;33.50;1.00
13711;DHT22;6927;51.256;9.410;2023-07-08T11:50:56;33.60;1.00
13711;DHT22;6927;51.256;9.410;2023-07-08T11:57:06;33.50;1.00
13711;DHT22;6927;51.256;9.410;2023-07-08T11:59:43;33.40;1.00
13711;DHT22;6927;51.256;9.410;2023-07-08T12:02:18;33.30;1.00
13711;DHT22;6927;51.256;9.410;2023-07-08T12:05:12;32.90;1.00
13711;DHT22;6927;51.256;9.410;2023-07-08T12:07:48;32.70;1.00
13711;DHT22;6927;51.256;9.410;2023-07-08T12:10:37;32.60;1.00
13711;DHT22;6927;51.256;9.410;2023-07-08T12:13:13;32.60;1.00
13711;DHT22;6927;51.256;9.410;2023-07-08T12:15:39;32.80;1.00
13711;DHT22;6927;51.256;9.410;2023-07-08T12:18:19;32.60;1.00
13711;DHT22;6927;51.256;9.410;2023-07-08T12:20:51;32.50;1.00
13711;DHT22;6927;51.256;9.410;2023-07-08T12:23:22;32.60;1.00
13711;DHT22;6927;51.256;9.410;2023-07-08T12:25:55;32.50;1.00
13711;DHT22;6927;51.256;9.410;2023-07-08T12:28:22;32.40;1.00
13711;DHT22;6927;51.256;9.410;2023-07-08T12:30:49;32.40;1.00
13711;DHT22;6927;51.256;9.410;2023-07-08T12:33:19;32.50;1.00
13711;DHT22;6927;51.256;9.410;2023-07-08T12:35:47;32.70;1.00
13711;DHT22;6927;51.256;9.410;2023-07-08T12:38:35;32.90;1.00
13711;DHT22;6927;51.256;9.410;2023-07-08T12:41:08;32.90;1.00
13711;DHT22;6927;51.256;9.410;2023-07-08T12:43:34;32.90;1.00
13711;DHT22;6927;51.256;9.410;2023-07-08T12:45:59;32.60;1.00
13711;DHT22;6927;51.256;9.410;2023-07-08T12:48:25;32.50;1.00
13711;DHT22;6927;51.256;9.410;2023-07-08T12:50:51;32.60;1.00
13711;DHT22;6927;51.256;9.410;2023-07-08T12:53:19;32.70;1.00
13711;DHT22;6927;51.256;9.410;2023-07-08T12:55:45;32.70;1.00
13711;DHT22;6927;51.256;9.410;2023-07-08T12:58:20;32.60;1.00
13711;DHT22;6927;51.256;9.410;2023-07-08T13:00:48;32.40;1.00
13711;DHT22;6927;51.256;9.410;2023-07-08T13:03:21;32.50;1.00
13711;DHT22;6927;51.256;9.410;2023-07-08T13:05:49;32.40;1.00
13711;DHT22;6927;51.256;9.410;2023-07-08T13:08:19;32.10;1.00
13711;DHT22;6927;51.256;9.410;2023-07-08T13:10:46;32.10;1.00
13711;DHT22;6927;51.256;9.410;2023-07-08T13:13:16;32.30;1.00
13711;DHT22;6927;51.256;9.410;2023-07-08T13:15:44;32.30;1.00
13711;DHT22;6927;51.256;9.410;2023-07-08T13:18:30;32.30;1.00
13711;DHT22;6927;51.256;9.410;2023-07-08T13:20:58;32.70;1.00
13711;DHT22;6927;51.256;9.410;2023-07-08T13:23:26;32.70;1.00
13711;DHT22;6927;51.256;9.410;2023-07-08T13:25:53;32.50;1.00
13711;DHT22;6927;51.256;9.410;2023-07-08T13:28:36;32.40;1.00
13711;DHT22;6927;51.256;9.410;2023-07-08T13:31:11;32.30;1.00
13711;DHT22;6927;51.256;9.410;2023-07-08T13:33:44;32.20;1.00
13711;DHT22;6927;51.256;9.410;2023-07-08T13:36:09;32.20;1.00
13711;DHT22;6927;51.256;9.410;2023-07-08T13:38:40;32.30;1.00
13711;DHT22;6927;51.256;9.410;2023-07-08T13:41:08;32.50;1.00
13711;DHT22;6927;51.256;9.410;2023-07-08T13:43:36;32.50;1.00
13711;DHT22;6927;51.256;9.410;2023-07-08T13:46:03;32.60;1.00
13711;DHT22;6927;51.256;9.410;2023-07-08T13:48:33;32.70;1.00
13711;DHT22;6927;51.256;9.410;2023-07-08T13:51:21;32.40;1.00
13711;DHT22;6927;51.256;9.410;2023-07-08T13:53:52;32.70;1.00
13711;DHT22;6927;51.256;9.410;2023-07-08T13:56:30;32.60;1.00
13711;DHT22;6927;51.256;9.410;2023-07-08T13:59:09;32.70;1.00
13711;DHT22;6927;51.256;9.410;2023-07-08T14:01:40;32.70;1.00
13711;DHT22;6927;51.256;9.410;2023-07-08T14:04:07;32.50;1.00
13711;DHT22;6927;51.256;9.410;2023-07-08T14:06:36;32.50;1.00
13711;DHT22;6927;51.256;9.410;2023-07-08T14:09:22;32.50;1.00
13711;DHT22;6927;51.256;9.410;2023-07-08T14:11:49;32.50;1.00
13711;DHT22;6927;51.256;9.410;2023-07-08T14:14:18;32.50;1.00
13711;DHT22;6927;51.256;9.410;2023-07-08T14:16:47;32.50;1.00
13711;DHT22;6927;51.256;9.410;2023-07-08T14:19:29;32.40;1.00
13711;DHT22;6927;51.256;9.410;2023-07-08T14:21:58;32.50;1.00
13711;DHT22;6927;51.256;9.410;2023-07-08T14:24:26;32.60;1.00
13711;DHT22;6927;51.256;9.410;2023-07-08T14:26:55;32.90;1.00
13711;DHT22;6927;51.256;9.410;2023-07-08T14:29:24;33.00;1.00
13711;DHT22;6927;51.256;9.410;2023-07-08T14:31:50;33.00;1.00
13711;DHT22;6927;51.256;9.410;2023-07-08T14:34:22;33.10;1.00
13711;DHT22;6927;51.256;9.410;2023-07-08T14:36:51;33.30;1.00
13711;DHT22;6927;51.256;9.410;2023-07-08T14:39:20;33.50;1.00
13711;DHT22;6927;51.256;9.410;2023-07-08T14:41:48;33.40;1.00
13711;DHT22;6927;51.256;9.410;2023-07-08T14:44:24;33.10;1.00
13711;DHT22;6927;51.256;9.410;2023-07-08T14:46:53;32.70;1.00
13711;DHT22;6927;51.256;9.410;2023-07-08T14:49:23;32.30;1.00
13711;DHT22;6927;51.256;9.410;2023-07-08T14:51:52;32.10;1.00
13711;DHT22;6927;51.256;9.410;2023-07-08T14:54:21;32.10;1.00
13711;DHT22;6927;51.256;9.410;2023-07-08T14:56:53;32.10;1.00
13711;DHT22;6927;51.256;9.410;2023-07-08T14:59:23;32.20;1.00
13711;DHT22;6927;51.256;9.410;2023-07-08T15:01:58;32.40;1.00
13711;DHT22;6927;51.256;9.410;2023-07-08T15:04:24;32.30;1.00
13711;DHT22;6927;51.256;9.410;2023-07-08T15:06:50;32.30;1.00
13711;DHT22;6927;51.256;9.410;2023-07-08T15:09:20;32.10;1.00
13711;DHT22;6927;51.256;9.410;2023-07-08T15:11:46;31.90;1.00
13711;DHT22;6927;51.256;9.410;2023-07-08T15:14:31;31.70;1.00
13711;DHT22;6927;51.256;9.410;2023-07-08T15:16:58;31.60;1.00
13711;DHT22;6927;51.256;9.410;2023-07-08T15:19:24;31.50;1.00
13711;DHT22;6927;51.256;9.410;2023-07-08T15:21:50;31.70;1.00
13711;DHT22;6927;51.256;9.410;2023-07-08T15:24:15;32.10;1.00
13711;DHT22;6927;51.256;9.410;2023-07-08T15:26:45;32.50;1.00
13711;DHT22;6927;51.256;9.410;2023-07-08T15:29:15;33.00;1.00
13711;DHT22;6927;51.256;9.410;2023-07-08T15:31:41;33.20;1.00
13711;DHT22;6927;51.256;9.410;2023-07-08T15:34:20;33.10;1.00
13711;DHT22;6927;51.256;9.410;2023-07-08T15:36:46;33.00;1.00
13711;DHT22;6927;51.256;9.410;2023-07-08T15:39:11;33.10;1.00
13711;DHT22;6927;51.256;9.410;2023-07-08T15:41:41;33.30;1.00
13711;DHT22;6927;51.256;9.410;2023-07-08T15:44:13;33.40;1.00
13711;DHT22;6927;51.256;9.410;2023-07-08T15:46:45;33.10;1.00
13711;DHT22;6927;51.256;9.410;2023-07-08T15:49:20;33.00;1.00
13711;DHT22;6927;51.256;9.410;2023-07-08T15:51:50;32.70;1.00
13711;DHT22;6927;51.256;9.410;2023-07-08T15:54:25;32.50;1.00
13711;DHT22;6927;51.256;9.410;2023-07-08T15:56:52;32.40;1.00
13711;DHT22;6927;51.256;9.410;2023-07-08T15:59:26;32.50;1.00
13711;DHT22;6927;51.256;9.410;2023-07-08T16:01:57;32.70;1.00
13711;DHT22;6927;51.256;9.410;2023-07-08T16:04:33;32.60;1.00
13711;DHT22;6927;51.256;9.410;2023-07-08T16:06:59;32.80;1.00
13711;DHT22;6927;51.256;9.410;2023-07-08T16:09:24;32.70;1.00
13711;DHT22;6927;51.256;9.410;2023-07-08T16:11:53;32.70;1.00
13711;DHT22;6927;51.256;9.410;2023-07-08T16:17:50;32.40;1.00
13711;DHT22;6927;51.256;9.410;2023-07-08T16:20:34;32.40;1.00
13711;DHT22;6927;51.256;9.410;2023-07-08T16:23:03;32.30;1.00
13711;DHT22;6927;51.256;9.410;2023-07-08T16:25:57;32.30;1.00
13711;DHT22;6927;51.256;9.410;2023-07-08T16:28:45;32.20;1.00
13711;DHT22;6927;51.256;9.410;2023-07-08T16:31:23;32.20;1.00
13711;DHT22;6927;51.256;9.410;2023-07-08T16:33:52;32.40;1.00
13711;DHT22;6927;51.256;9.410;2023-07-08T16:36:24;32.40;1.00
13711;DHT22;6927;51.256;9.410;2023-07-08T16:38:51;32.40;1.00
13711;DHT22;6927;51.256;9.410;2023-07-08T16:48:55;32.00;1.00
13711;DHT22;6927;51.256;9.410;2023-07-08T16:51:39;32.10;1.00
13711;DHT22;6927;51.256;9.410;2023-07-08T16:54:15;32.20;1.00
13711;DHT22;6927;51.256;9.410;2023-07-08T16:56:46;32.30;1.00
13711;DHT22;6927;51.256;9.410;2023-07-08T16:59:27;32.30;1.00
13711;DHT22;6927;51.256;9.410;2023-07-08T17:02:12;32.40;1.00
13711;DHT22;6927;51.256;9.410;2023-07-08T17:04:52;32.70;1.00
13711;DHT22;6927;51.256;9.410;2023-07-08T17:07:23;33.20;1.00
13711;DHT22;6927;51.256;9.410;2023-07-08T17:09:49;33.70;1.00
13711;DHT22;6927;51.256;9.410;2023-07-08T17:12:14;33.90;1.00
13711;DHT22;6927;51.256;9.410;2023-07-08T17:14:40;34.10;1.00
13711;DHT22;6927;51.256;9.410;2023-07-08T17:17:13;34.40;1.00
13711;DHT22;6927;51.256;9.410;2023-07-08T17:19:40;34.30;1.00
13711;DHT22;6927;51.256;9.410;2023-07-08T17:22:08;34.00;1.00
13711;DHT22;6927;51.256;9.410;2023-07-08T17:24:34;33.90;1.00
13711;DHT22;6927;51.256;9.410;2023-07-08T17:26:59;33.80;1.00
13711;DHT22;6927;51.256;9.410;2023-07-08T17:29:25;33.50;1.00
13711;DHT22;6927;51.256;9.410;2023-07-08T17:31:55;33.20;1.00
13711;DHT22;6927;51.256;9.410;2023-07-08T17:34:28;32.80;1.00
13711;DHT22;6927;51.256;9.410;2023-07-08T17:36:54;32.50;1.00